Time;durP1;ratioP1;P1;durP2;ratioP2;P2;SDS_P1;SDS_P2;PMS_P1;PMS_P2;Temp;Humidity;BMP_temperature;BMP_pressure;BME280_temperature;BME280_humidity;BME280_pressure;Samples;Min_cycle;Max_cycle;Signal;HPM_P1;HPM_P2
2021/01/02 00:02:46;;;;;;;1.98;1.13;;;;;;;22.74;28.16;101113.66;4934964;28;111073;-54
2021/01/02 00:05:13;;;;;;;2.40;1.73;;;;;;;22.73;27.97;101111.94;4939865;28;97231;-54
2021/01/02 00:08:09;;;;;;;2.30;1.80;;;;;;;22.69;27.91;101113.84;4949192;28;97531;-54
2021/01/02 00:10:40;;;;;;;1.83;1.50;;;;;;;22.70;27.85;101117.34;4940767;28;97908;-53
2021/01/02 00:13:26;;;;;;;2.15;1.95;;;;;;;22.68;27.91;101119.19;4937665;28;97121;-53
2021/01/02 00:16:05;;;;;;;4.28;1.83;;;;;;;22.68;28.05;101116.53;4938228;28;97211;-53
2021/01/02 00:18:41;;;;;;;2.22;1.73;;;;;;;22.68;27.85;101121.84;4924498;28;97573;-53
2021/01/02 00:21:15;;;;;;;2.15;1.70;;;;;;;22.67;27.79;101120.97;4938128;28;97396;-53
2021/01/02 00:24:00;;;;;;;1.77;1.48;;;;;;;22.65;28.04;101122.81;4924154;28;96860;-54
2021/01/02 00:26:42;;;;;;;1.83;1.50;;;;;;;22.66;28.12;101116.59;4939586;28;96742;-54
2021/01/02 00:29:07;;;;;;;1.70;1.25;;;;;;;22.67;27.96;101118.31;4944031;28;97341;-54
2021/01/02 00:32:00;;;;;;;2.20;1.65;;;;;;;22.64;28.03;101118.44;4934294;28;126586;-53
2021/01/02 00:34:28;;;;;;;1.80;1.50;;;;;;;22.66;27.96;101118.38;4945830;28;97243;-53
2021/01/02 00:37:12;;;;;;;1.75;1.45;;;;;;;22.64;28.04;101115.78;4939135;28;97139;-53
2021/01/02 00:39:52;;;;;;;;;;;;;;;22.63;27.92;101114.88;4944600;28;101967;-53
2021/01/02 00:42:18;;;;;;;1.77;1.60;;;;;;;22.68;27.90;101116.53;4940924;28;98400;-53
2021/01/02 00:44:43;;;;;;;2.25;1.80;;;;;;;22.66;27.78;101119.25;4916149;28;100284;-53
2021/01/02 00:47:10;;;;;;;3.45;1.60;;;;;;;22.65;27.93;101119.28;4933384;28;97146;-53
2021/01/02 00:49:36;;;;;;;2.03;1.50;;;;;;;22.64;28.13;101118.44;4929513;28;98889;-53
2021/01/02 00:52:14;;;;;;;2.88;2.05;;;;;;;22.63;28.10;101119.34;4947235;28;124558;-53
2021/01/02 00:54:51;;;;;;;3.20;1.42;;;;;;;22.63;27.87;101125.53;4923419;28;96825;-53
2021/01/02 00:58:03;;;;;;;1.80;1.40;;;;;;;22.62;27.92;101122.94;4938739;28;97656;-53
2021/01/02 01:00:31;;;;;;;2.15;1.70;;;;;;;22.65;27.98;101116.63;4919960;28;99755;-53
2021/01/02 01:03:06;;;;;;;2.15;1.80;;;;;;;22.64;27.97;101126.41;4931759;28;99350;-54
2021/01/02 01:05:35;;;;;;;2.47;1.85;;;;;;;22.63;28.09;101119.34;4953659;28;96788;-53
2021/01/02 01:08:00;;;;;;;2.45;1.70;;;;;;;22.63;27.79;101116.69;4938931;28;96639;-53
2021/01/02 01:10:30;;;;;;;2.28;1.70;;;;;;;22.63;28.03;101125.53;4936299;28;119843;-53
2021/01/02 01:13:19;;;;;;;2.75;1.83;;;;;;;22.62;28.06;101128.25;4947724;28;97255;-53
2021/01/02 01:15:44;;;;;;;1.88;1.67;;;;;;;22.64;27.83;101123.75;4934848;28;97413;-53
2021/01/02 01:18:31;;;;;;;2.20;1.90;;;;;;;22.62;28.20;101126.47;4934560;28;96921;-54
2021/01/02 01:20:58;;;;;;;2.08;1.70;;;;;;;22.63;28.09;101124.66;4936166;28;97398;-54
2021/01/02 01:23:29;;;;;;;2.15;1.67;;;;;;;22.62;28.14;101129.13;4933923;28;104003;-54
2021/01/02 01:26:14;;;;;;;2.38;1.58;;;;;;;22.60;27.79;101133.63;4942251;28;96863;-54
2021/01/02 01:28:42;;;;;;;2.17;1.60;;;;;;;22.63;28.04;101135.28;4934527;28;97299;-54
2021/01/02 01:31:08;;;;;;;2.05;1.63;;;;;;;22.62;28.12;101139.75;4936783;28;97364;-54
2021/01/02 01:33:33;;;;;;;2.63;1.80;;;;;;;22.61;27.85;101143.31;4930908;28;126575;-54
2021/01/02 01:36:00;;;;;;;2.13;1.65;;;;;;;22.62;28.08;101142.41;4922009;28;113981;-54
2021/01/02 01:38:27;;;;;;;1.85;1.70;;;;;;;22.62;28.11;101144.22;4939267;28;97239;-54
2021/01/02 01:41:12;;;;;;;2.10;1.70;;;;;;;22.62;28.06;101144.22;4936730;28;97360;-54
2021/01/02 01:43:49;;;;;;;1.63;1.42;;;;;;;22.61;27.74;101147.78;4947868;28;97172;-54
2021/01/02 01:46:15;;;;;;;1.95;1.50;;;;;;;22.62;28.11;101149.53;4934246;28;117210;-54
2021/01/02 01:48:53;;;;;;;2.38;1.73;;;;;;;22.60;27.99;101151.34;4944067;28;96691;-54
2021/01/02 01:51:50;;;;;;;2.22;1.55;;;;;;;22.58;27.82;101154.06;4935762;28;97703;-54
2021/01/02 01:54:52;;;;;;;1.88;1.60;;;;;;;22.59;27.80;101160.25;4932700;28;100675;-53
2021/01/02 01:57:24;;;;;;;2.13;1.70;;;;;;;22.60;27.70;101161.97;4938955;28;96704;-53
2021/01/02 01:59:58;;;;;;;1.90;1.70;;;;;;;22.58;28.09;101159.38;4941789;28;116428;-53
2021/01/02 02:02:39;;;;;;;1.95;1.60;;;;;;;22.57;28.12;101165.63;4947589;28;98874;-54
2021/01/02 02:05:08;;;;;;;1.90;1.45;;;;;;;22.59;27.88;101162.91;4941593;28;98552;-54
2021/01/02 02:07:45;;;;;;;1.80;1.60;;;;;;;22.58;27.71;101163.81;4943893;28;117091;-54
2021/01/02 02:10:12;;;;;;;1.70;1.50;;;;;;;22.59;28.06;101160.25;4945193;28;96853;-54
2021/01/02 02:12:38;;;;;;;2.00;1.70;;;;;;;22.60;27.93;101161.97;4952260;28;119402;-54
2021/01/02 02:15:07;;;;;;;1.58;1.40;;;;;;;22.59;27.98;101163.78;4903328;28;114133;-54
2021/01/02 02:17:39;;;;;;;2.05;1.85;;;;;;;22.59;28.10;101169.09;4936414;28;100649;-54
2021/01/02 02:20:06;;;;;;;1.52;1.30;;;;;;;22.60;27.99;101170.84;4933716;28;119402;-54
2021/01/02 02:22:34;;;;;;;1.70;1.50;;;;;;;22.61;27.82;101169.03;4951627;28;97674;-54
2021/01/02 02:24:59;;;;;;;2.25;1.83;;;;;;;22.62;28.16;101168.13;4942663;28;97352;-54
2021/01/02 02:27:26;;;;;;;2.30;1.70;;;;;;;22.61;27.81;101169.91;4922963;28;117047;-54
2021/01/02 02:30:16;;;;;;;2.10;1.60;;;;;;;22.61;27.72;101177.03;4931615;28;97113;-54
2021/01/02 02:32:43;;;;;;;2.10;1.52;;;;;;;22.62;27.78;101170.78;4938243;28;96710;-54
2021/01/02 02:35:14;;;;;;;1.90;1.60;;;;;;;22.62;27.84;101169.00;4933498;28;99584;-54
2021/01/02 02:37:41;;;;;;;1.65;1.50;;;;;;;22.62;27.96;101162.81;4939441;28;96804;-54
2021/01/02 02:40:08;;;;;;;2.42;1.80;;;;;;;22.62;27.84;101162.81;4951043;28;96944;-54
2021/01/02 02:42:34;;;;;;;2.40;1.83;;;;;;;22.62;27.90;101163.69;4937281;28;127777;-54
2021/01/02 02:44:59;;;;;;;1.88;1.63;;;;;;;22.63;27.87;101159.22;4961778;28;97432;-54
2021/01/02 02:47:25;;;;;;;2.92;1.90;;;;;;;22.63;28.06;101162.75;4932920;28;118223;-54
2021/01/02 02:49:50;;;;;;;2.22;1.90;;;;;;;22.62;28.10;101166.34;4949935;28;116903;-54
2021/01/02 02:52:35;;;;;;;1.85;1.60;;;;;;;22.59;28.17;101163.78;4942930;28;97703;-54
2021/01/02 02:55:01;;;;;;;2.35;1.88;;;;;;;22.61;27.69;101159.25;4941292;28;97276;-54
2021/01/02 02:57:28;;;;;;;2.47;2.03;;;;;;;22.61;27.80;101159.25;4922660;28;98219;-54
2021/01/02 02:59:53;;;;;;;2.45;2.20;;;;;;;22.61;28.07;101161.06;4950523;28;115915;-54
2021/01/02 03:02:19;;;;;;;2.60;2.00;;;;;;;22.61;27.78;101159.25;4943240;28;126746;-54
2021/01/02 03:04:44;;;;;;;2.13;1.65;;;;;;;22.62;27.97;101157.50;4936855;28;97216;-54
2021/01/02 03:07:10;;;;;;;2.35;1.88;;;;;;;22.62;27.68;101160.16;4942829;28;117705;-54
2021/01/02 03:09:35;;;;;;;2.00;1.80;;;;;;;22.61;27.61;101163.72;4940322;28;97992;-54
2021/01/02 03:12:01;;;;;;;2.25;1.90;;;;;;;22.61;27.87;101169.03;4943699;28;97444;-54
2021/01/02 03:14:26;;;;;;;2.33;1.98;;;;;;;22.61;27.69;101172.56;4949659;28;126559;-54
2021/01/02 03:16:59;;;;;;;2.33;1.90;;;;;;;22.60;27.82;101173.50;4942249;28;117555;-54
2021/01/02 03:19:26;;;;;;;2.40;2.03;;;;;;;22.61;27.91;101177.88;4938088;28;112008;-54
2021/01/02 03:21:51;;;;;;;2.45;1.90;;;;;;;22.61;27.79;101169.91;4950509;28;126763;-54
2021/01/02 03:24:18;;;;;;;2.80;1.92;;;;;;;22.61;27.79;101174.34;4940656;28;126548;-54
2021/01/02 03:26:43;;;;;;;2.22;1.92;;;;;;;22.61;27.79;101174.34;4950283;28;96804;-54
2021/01/02 03:29:09;;;;;;;2.30;1.98;;;;;;;22.61;27.61;101177.03;4956245;28;97055;-53
2021/01/02 03:31:34;;;;;;;2.08;1.80;;;;;;;22.61;27.71;101179.69;4949388;28;107959;-53
2021/01/02 03:33:59;;;;;;;2.08;1.88;;;;;;;22.60;27.82;101183.25;4940407;28;97286;-54
2021/01/02 03:36:25;;;;;;;2.38;1.70;;;;;;;22.61;27.87;101179.69;4951588;28;117858;-54
2021/01/02 03:38:55;;;;;;;2.40;1.83;;;;;;;22.60;27.83;101175.25;4939317;28;116773;-54
2021/01/02 03:41:21;;;;;;;2.10;1.73;;;;;;;22.60;27.65;101180.59;4951100;28;97590;-53
2021/01/02 03:43:46;;;;;;;2.20;1.77;;;;;;;22.60;27.86;101176.16;4937930;28;97542;-54
2021/01/02 03:46:12;;;;;;;2.20;1.80;;;;;;;22.60;27.92;101172.59;4939104;28;117914;-53
2021/01/02 03:48:37;;;;;;;2.67;1.90;;;;;;;22.61;27.98;101169.03;4949138;28;116468;-53
2021/01/02 03:51:03;;;;;;;2.28;1.90;;;;;;;22.60;27.93;101173.50;4937555;28;97408;-54
2021/01/02 03:53:29;;;;;;;2.25;2.03;;;;;;;22.61;27.88;101174.34;4933856;28;126837;-54
2021/01/02 03:55:55;;;;;;;2.42;2.00;;;;;;;22.61;27.85;101167.25;4934926;28;98332;-54
2021/01/02 03:58:20;;;;;;;2.10;1.85;;;;;;;22.62;27.55;101168.13;4935585;28;97219;-54
2021/01/02 04:00:46;;;;;;;2.78;1.90;;;;;;;22.63;27.52;101167.19;4948933;28;119383;-54
2021/01/02 04:03:11;;;;;;;2.47;2.10;;;;;;;22.62;27.54;101174.31;4937802;28;97310;-54
2021/01/02 04:05:37;;;;;;;2.38;1.95;;;;;;;22.62;28.03;101170.78;4940343;28;96694;-54
2021/01/02 04:08:03;;;;;;;2.78;1.90;;;;;;;22.62;27.55;101170.78;4940252;28;96993;-54
2021/01/02 04:10:28;;;;;;;2.40;2.10;;;;;;;22.62;27.92;101174.31;4937436;28;98669;-54
2021/01/02 04:12:54;;;;;;;2.40;1.95;;;;;;;22.62;27.81;101171.66;4934178;28;126602;-54
2021/01/02 04:15:19;;;;;;;2.20;2.00;;;;;;;22.61;27.82;101174.34;4935476;28;99738;-54
2021/01/02 04:17:45;;;;;;;2.58;2.00;;;;;;;22.62;27.45;101176.97;4938203;28;118116;-54
2021/01/02 04:20:11;;;;;;;2.60;2.00;;;;;;;22.62;27.93;101176.97;4937838;28;97611;-54
2021/01/02 04:22:36;;;;;;;2.70;2.00;;;;;;;22.62;27.54;101176.09;4934913;28;97320;-54
2021/01/02 04:25:03;;;;;;;2.00;1.80;;;;;;;22.62;27.85;101182.28;4935790;28;112104;-54
2021/01/02 04:27:29;;;;;;;1.98;1.70;;;;;;;22.62;27.85;101171.66;4953072;28;99038;-54
2021/01/02 04:29:54;;;;;;;2.15;1.88;;;;;;;22.62;27.94;101170.78;4947640;28;126866;-54
2021/01/02 04:32:20;;;;;;;2.20;1.92;;;;;;;22.62;27.63;101171.66;4935161;28;123287;-54
2021/01/02 04:34:45;;;;;;;2.35;2.00;;;;;;;22.62;27.61;101171.66;4941438;28;105004;-54
2021/01/02 04:37:11;;;;;;;2.15;1.88;;;;;;;22.62;27.54;101169.00;4948660;28;97076;-54
2021/01/02 04:39:36;;;;;;;2.35;1.90;;;;;;;22.63;27.56;101175.16;4935214;28;126525;-54
2021/01/02 04:42:02;;;;;;;2.33;1.92;;;;;;;22.62;27.66;101169.00;4956167;28;97853;-54
2021/01/02 04:44:27;;;;;;;3.03;2.33;;;;;;;22.63;27.81;101178.69;4940664;28;104960;-54
2021/01/02 04:46:54;;;;;;;2.20;2.00;;;;;;;22.63;27.80;101172.50;4933222;28;102455;-54
2021/01/02 04:49:19;;;;;;;1.92;1.73;;;;;;;22.62;27.37;101170.78;4948019;28;100510;-54
2021/01/02 04:51:45;;;;;;;2.35;2.10;;;;;;;22.63;27.94;101180.50;4949879;28;127157;-54
2021/01/02 04:54:10;;;;;;;2.67;2.00;;;;;;;22.63;27.56;101177.84;4940092;28;111317;-54
2021/01/02 04:56:38;;;;;;;2.03;1.73;;;;;;;22.62;27.47;101181.44;4930880;28;97029;-54
2021/01/02 04:59:10;;;;;;;2.63;1.92;;;;;;;22.61;27.61;101174.34;4935228;28;97545;-54
2021/01/02 05:01:39;;;;;;;2.43;1.93;;;;;;;22.61;27.79;101174.34;4937773;28;97225;-54
2021/01/02 05:04:08;;;;;;;2.63;2.10;;;;;;;22.61;27.82;101175.22;4948913;28;96878;-54
2021/01/02 05:06:33;;;;;;;2.33;1.83;;;;;;;22.61;27.90;101177.88;4938236;28;107866;-54
2021/01/02 05:08:59;;;;;;;2.80;2.08;;;;;;;22.60;27.72;101173.50;4937856;28;125550;-54
2021/01/02 05:11:24;;;;;;;2.50;2.00;;;;;;;22.61;27.81;101177.88;4947119;28;126726;-54
2021/01/02 05:13:50;;;;;;;3.03;2.10;;;;;;;22.61;27.68;101180.53;4920952;28;116834;-54
2021/01/02 05:16:21;;;;;;;2.50;2.00;;;;;;;22.61;27.90;101177.88;4927537;28;114154;-54
2021/01/02 05:19:00;;;;;;;2.15;1.95;;;;;;;22.61;27.81;101177.88;4936366;28;97353;-54
2021/01/02 05:21:29;;;;;;;2.67;2.10;;;;;;;22.61;27.54;101174.34;4932285;28;97422;-54
2021/01/02 05:24:04;;;;;;;2.50;2.20;;;;;;;22.60;27.80;101180.59;4935608;28;99406;-54
2021/01/02 05:26:30;;;;;;;2.80;2.03;;;;;;;22.61;27.40;101179.69;4939958;28;96703;-54
2021/01/02 05:29:15;;;;;;;2.85;2.20;;;;;;;22.59;27.44;101179.72;4950326;28;122692;-54
2021/01/02 05:31:42;;;;;;;2.67;2.10;;;;;;;22.61;27.56;101179.69;4934652;28;97318;-54
2021/01/02 05:34:08;;;;;;;2.90;2.20;;;;;;;22.60;27.78;101178.81;4916662;28;96866;-54
2021/01/02 05:36:33;;;;;;;2.78;2.20;;;;;;;22.61;27.85;101185.00;4937666;28;97325;-54
2021/01/02 05:38:59;;;;;;;2.38;1.90;;;;;;;22.61;27.60;101191.16;4944946;28;127307;-54
2021/01/02 05:41:25;;;;;;;2.70;1.95;;;;;;;22.61;27.48;101187.66;4934358;28;97263;-53
2021/01/02 05:43:51;;;;;;;2.58;2.30;;;;;;;22.62;27.69;101192.06;4931557;28;96692;-54
2021/01/02 05:46:19;;;;;;;2.95;2.40;;;;;;;22.62;27.55;101195.59;4942578;28;96734;-54
2021/01/02 05:48:45;;;;;;;3.55;2.45;;;;;;;22.63;27.78;101201.75;4919685;28;104010;-54
2021/01/02 05:51:10;;;;;;;2.97;2.10;;;;;;;22.63;27.73;101199.09;4936797;28;97321;-54
2021/01/02 05:53:36;;;;;;;3.00;2.05;;;;;;;22.63;27.81;101201.75;4933804;28;117043;-54
2021/01/02 05:56:09;;;;;;;2.40;2.00;;;;;;;22.61;27.47;101196.47;4936966;28;116736;-54
2021/01/02 05:58:35;;;;;;;3.10;2.15;;;;;;;22.63;27.54;101196.44;4952775;28;97615;-54
2021/01/02 06:01:04;;;;;;;3.15;2.20;;;;;;;22.62;27.54;101197.38;4937590;28;98296;-54
2021/01/02 06:03:30;;;;;;;2.78;2.40;;;;;;;22.62;27.52;101197.38;4937712;28;96969;-54
2021/01/02 06:06:01;;;;;;;2.58;2.10;;;;;;;22.62;27.50;101202.69;4939642;28;96644;-54
2021/01/02 06:08:30;;;;;;;2.30;2.10;;;;;;;22.62;27.31;101198.25;4919396;28;97498;-54
2021/01/02 06:11:00;;;;;;;2.40;2.13;;;;;;;22.62;27.73;101202.69;4939804;28;97153;-54
2021/01/02 06:13:30;;;;;;;2.53;2.10;;;;;;;22.62;27.79;101208.88;4949414;28;98081;-54
2021/01/02 06:16:00;;;;;;;2.63;2.10;;;;;;;22.62;27.62;101214.19;4938276;28;96875;-54
2021/01/02 06:18:27;;;;;;;2.58;2.00;;;;;;;22.62;27.37;101211.53;4939968;28;97470;-54
2021/01/02 06:20:53;;;;;;;2.30;1.90;;;;;;;22.62;27.33;101205.34;4947522;28;118382;-54
2021/01/02 06:23:18;;;;;;;2.30;1.95;;;;;;;22.63;27.52;101204.41;4936348;28;96745;-54
2021/01/02 06:25:47;;;;;;;2.60;2.17;;;;;;;22.62;27.59;101208.88;4941361;28;96721;-54
2021/01/02 06:28:14;;;;;;;2.40;2.20;;;;;;;22.62;27.42;101216.84;4937407;28;97588;-54
2021/01/02 06:30:39;;;;;;;2.75;2.10;;;;;;;22.63;27.78;101221.22;4938396;28;97248;-54
2021/01/02 06:33:05;;;;;;;2.40;2.20;;;;;;;22.62;27.78;101223.97;4952495;28;116850;-54
2021/01/02 06:35:37;;;;;;;2.55;2.00;;;;;;;22.62;27.37;101227.47;4925964;28;98212;-54
2021/01/02 06:38:06;;;;;;;2.38;2.10;;;;;;;22.63;27.70;101226.56;4922992;28;96852;-54
2021/01/02 06:40:42;;;;;;;2.42;2.05;;;;;;;22.60;27.61;101226.66;4950688;28;103805;-54
2021/01/02 06:43:12;;;;;;;3.45;2.58;;;;;;;22.62;27.40;101226.63;4942695;28;97525;-54
2021/01/02 06:45:38;;;;;;;2.50;2.10;;;;;;;22.61;27.73;101231.03;4941941;28;96722;-54
2021/01/02 06:48:12;;;;;;;2.42;2.00;;;;;;;22.60;27.66;101232.00;4942914;28;97535;-54
2021/01/02 06:50:38;;;;;;;2.50;2.30;;;;;;;22.61;27.35;101233.72;4941544;28;97160;-54
2021/01/02 06:53:33;;;;;;;3.03;2.72;;;;;;;22.59;27.60;101230.22;4938883;28;117168;-54
2021/01/02 06:56:09;;;;;;;3.67;2.47;;;;;;;22.59;27.44;101232.88;4950395;28;96874;-54
2021/01/02 06:58:36;;;;;;;3.10;2.58;;;;;;;22.60;27.50;101229.31;4939929;28;97564;-53
2021/01/02 07:01:05;;;;;;;4.20;2.72;;;;;;;22.60;27.42;101226.66;4937637;28;97328;-53
2021/01/02 07:03:40;;;;;;;3.03;2.30;;;;;;;22.59;27.44;101224.06;4935444;28;96864;-54
2021/01/02 07:06:20;;;;;;;2.70;2.30;;;;;;;22.59;27.67;101224.06;4943576;28;97065;-53
2021/01/02 07:08:59;;;;;;;2.75;2.38;;;;;;;22.59;27.66;101222.25;4939750;28;98094;-53
2021/01/02 07:11:44;;;;;;;2.97;2.35;;;;;;;22.57;27.56;101228.56;4938868;28;97404;-53
2021/01/02 07:14:09;;;;;;;2.70;2.20;;;;;;;22.59;27.43;101234.69;4938699;28;117171;-53
2021/01/02 07:16:38;;;;;;;2.70;2.40;;;;;;;22.58;27.47;101230.28;4940321;28;96835;-53
2021/01/02 07:19:04;;;;;;;2.58;2.38;;;;;;;22.59;27.33;101237.34;4942263;28;97681;-53
2021/01/02 07:21:36;;;;;;;2.92;2.47;;;;;;;22.59;27.47;101242.66;4938585;28;121274;-53
2021/01/02 07:24:21;;;;;;;2.42;2.22;;;;;;;22.57;27.74;101242.72;4920699;28;96824;-53
2021/01/02 07:26:47;;;;;;;3.10;2.40;;;;;;;22.60;27.66;101239.06;4941984;28;97805;-53
2021/01/02 07:29:19;;;;;;;2.80;2.20;;;;;;;22.59;27.60;101242.66;4949033;28;99269;-53
2021/01/02 07:31:45;;;;;;;3.22;2.50;;;;;;;22.60;27.63;101242.63;4942006;28;97205;-54
2021/01/02 07:34:18;;;;;;;3.75;2.60;;;;;;;22.59;27.70;101248.84;4939241;28;96853;-54
2021/01/02 07:36:44;;;;;;;2.72;2.42;;;;;;;22.61;27.37;101243.47;4946709;28;97567;-54
2021/01/02 07:39:10;;;;;;;3.65;2.70;;;;;;;22.61;27.54;101244.34;4939476;28;97548;-54
2021/01/02 07:41:35;;;;;;;3.25;2.80;;;;;;;22.61;27.56;101251.47;4936368;28;127474;-54
2021/01/02 07:44:01;;;;;;;3.45;2.60;;;;;;;22.61;27.53;101264.75;4947455;28;117168;-54
2021/01/02 07:46:26;;;;;;;3.17;2.70;;;;;;;22.61;27.58;101268.28;4949943;28;96903;-54
2021/01/02 07:48:55;;;;;;;3.42;2.80;;;;;;;22.60;27.54;101263.88;4929755;28;126803;-54
2021/01/02 07:51:20;;;;;;;3.35;2.65;;;;;;;22.61;27.53;101276.25;4952229;28;97324;-54
2021/01/02 07:53:53;;;;;;;3.50;3.00;;;;;;;22.60;27.30;101274.53;4935842;28;118077;-54
2021/01/02 07:56:34;;;;;;;3.78;2.90;;;;;;;22.59;27.43;101269.25;4949476;28;96999;-54
2021/01/02 07:59:26;;;;;;;3.17;2.63;;;;;;;22.58;27.48;101273.72;4937888;28;97505;-54
2021/01/02 08:01:53;;;;;;;3.03;2.72;;;;;;;22.60;27.60;101278.94;4936247;28;98540;-54
2021/01/02 08:04:18;;;;;;;3.92;3.00;;;;;;;22.60;27.57;101281.59;4944620;28;96787;-54
2021/01/02 08:06:45;;;;;;;2.63;2.42;;;;;;;22.60;27.66;101278.94;4942803;28;96716;-54
2021/01/02 08:09:11;;;;;;;3.10;2.50;;;;;;;22.59;27.53;101278.09;4943144;28;97498;-54
2021/01/02 08:11:36;;;;;;;4.20;3.03;;;;;;;22.58;27.36;101281.69;4925923;28;97704;-54
2021/01/02 08:14:02;;;;;;;3.50;3.10;;;;;;;22.59;27.29;101275.44;4937666;28;117273;-54
2021/01/02 08:16:27;;;;;;;4.03;2.80;;;;;;;22.60;27.67;101278.94;4935017;28;116728;-54
2021/01/02 08:19:05;;;;;;;3.50;3.00;;;;;;;22.57;27.67;101287.91;4938442;28;126831;-54
2021/01/02 08:21:37;;;;;;;3.40;2.70;;;;;;;22.58;27.73;101286.09;4932389;28;124718;-53
2021/01/02 08:24:03;;;;;;;3.63;2.75;;;;;;;22.59;27.41;101287.84;4939701;28;96717;-52
2021/01/02 08:26:29;;;;;;;3.70;3.10;;;;;;;22.58;27.26;101287.00;4939642;28;113221;-54
2021/01/02 08:28:54;;;;;;;3.00;2.70;;;;;;;22.58;27.46;101294.97;4934421;28;126948;-54
2021/01/02 08:31:20;;;;;;;3.28;2.97;;;;;;;22.59;27.44;101293.19;4933084;28;126760;-54
2021/01/02 08:33:45;;;;;;;3.63;2.83;;;;;;;22.59;27.54;101295.84;4905852;28;118717;-54
2021/01/02 08:36:14;;;;;;;3.60;2.90;;;;;;;22.59;27.43;101293.19;4925449;28;116922;-54
2021/01/02 08:38:39;;;;;;;3.42;3.00;;;;;;;22.58;27.66;101292.31;4938376;28;97635;-54
2021/01/02 08:41:04;;;;;;;3.40;2.90;;;;;;;22.60;27.62;101302.88;4941165;28;110884;-54
2021/01/02 08:43:30;;;;;;;3.00;2.70;;;;;;;22.59;27.68;101307.31;4938230;28;109331;-54
2021/01/02 08:46:03;;;;;;;4.13;3.10;;;;;;;22.58;27.53;101296.75;4940616;28;97297;-54
2021/01/02 08:48:28;;;;;;;3.50;2.88;;;;;;;22.59;27.66;101306.47;4936198;28;98282;-54
2021/01/02 08:50:54;;;;;;;2.92;2.50;;;;;;;22.59;27.83;101309.13;4937596;28;99200;-54
2021/01/02 08:53:26;;;;;;;3.13;2.83;;;;;;;22.58;27.73;101316.25;4945415;28;116989;-54
2021/01/02 08:55:52;;;;;;;4.35;2.83;;;;;;;22.58;27.73;101310.94;4946808;28;97088;-54
2021/01/02 08:58:31;;;;;;;4.03;2.90;;;;;;;22.57;27.36;101308.31;4940262;28;97235;-54
2021/01/02 09:00:56;;;;;;;3.53;2.53;;;;;;;22.59;27.55;101312.66;4939803;28;97316;-54
2021/01/02 09:03:22;;;;;;;3.55;2.90;;;;;;;22.59;27.61;101322.41;4936044;28;96714;-54
2021/01/02 09:05:48;;;;;;;2.90;2.58;;;;;;;22.59;27.63;101317.97;4937830;28;101692;-53
2021/01/02 09:08:17;;;;;;;3.80;2.90;;;;;;;22.59;27.43;101325.06;4955067;28;127027;-54
2021/01/02 09:10:44;;;;;;;4.13;2.95;;;;;;;22.59;27.47;101320.63;4941553;28;97326;-54
2021/01/02 09:13:20;;;;;;;3.42;3.08;;;;;;;22.59;27.85;101328.59;4939871;28;97532;-54
2021/01/02 09:15:55;;;;;;;2.83;2.30;;;;;;;22.59;27.60;101331.25;4925311;28;97028;-54
2021/01/02 09:18:30;;;;;;;3.50;2.72;;;;;;;22.60;27.61;101338.34;4945440;28;97668;-54
2021/01/02 09:20:59;;;;;;;2.95;2.40;;;;;;;22.60;27.85;101341.00;4940661;28;97116;-54
2021/01/02 09:23:37;;;;;;;3.38;2.78;;;;;;;22.59;27.44;101335.72;4944656;28;96907;-54
2021/01/02 09:26:03;;;;;;;3.20;2.63;;;;;;;22.59;27.72;101344.56;4942040;28;104644;-54
2021/01/02 09:28:39;;;;;;;3.20;2.50;;;;;;;22.59;27.38;101344.56;4949237;28;120521;-54
2021/01/02 09:31:05;;;;;;;3.08;2.50;;;;;;;22.59;27.47;101341.03;4968562;22;117457;-60
2021/01/02 09:33:30;;;;;;;3.33;2.53;;;;;;;22.61;27.16;101347.16;4949239;28;111411;-60
2021/01/02 09:35:56;;;;;;;5.43;2.80;;;;;;;22.60;27.44;101342.75;4966394;28;100642;-59
2021/01/02 09:38:21;;;;;;;4.28;2.50;;;;;;;22.59;27.62;101349.88;4968960;28;126925;-60
2021/01/02 09:40:46;;;;;;;3.50;2.58;;;;;;;22.60;27.72;101354.28;4936367;28;126356;-60
2021/01/02 09:43:13;;;;;;;3.67;2.67;;;;;;;22.60;27.61;101354.28;4952197;28;101772;-60
2021/01/02 09:45:40;;;;;;;4.70;2.88;;;;;;;22.61;27.81;101352.47;4949129;28;96855;-60
2021/01/02 09:48:06;;;;;;;3.80;2.78;;;;;;;22.61;27.73;101356.00;4948359;28;126967;-59
2021/01/02 09:50:32;;;;;;;3.83;3.15;;;;;;;22.62;27.67;101349.78;4943272;28;117267;-60
2021/01/02 09:52:57;;;;;;;3.70;2.95;;;;;;;22.62;27.85;101356.91;4950327;28;96792;-59
2021/01/02 09:55:23;;;;;;;4.85;2.63;;;;;;;22.62;27.88;101363.09;4955154;28;98696;-60
2021/01/02 09:57:48;;;;;;;6.47;3.08;;;;;;;22.62;27.67;101363.09;4968974;28;100755;-60
2021/01/02 10:00:14;;;;;;;9.48;2.90;;;;;;;22.63;27.84;101356.81;4945595;28;125115;-59
2021/01/02 10:02:40;;;;;;;6.38;3.03;;;;;;;22.64;27.61;101355.06;4939788;28;96710;-59
2021/01/02 10:05:06;;;;;;;4.35;3.10;;;;;;;22.63;28.02;101359.47;4967804;28;96923;-60
2021/01/02 10:07:31;;;;;;;5.43;3.00;;;;;;;22.66;27.99;101360.34;4947123;28;97595;-59
2021/01/02 10:09:57;;;;;;;6.25;3.78;;;;;;;22.67;27.92;101359.41;4950988;28;126651;-60
2021/01/02 10:12:22;;;;;;;7.95;4.22;;;;;;;22.67;27.99;101364.72;4933613;28;112186;-60
2021/01/02 10:14:48;;;;;;;8.30;4.50;;;;;;;22.67;27.90;101359.41;4957607;28;96938;-60
2021/01/02 10:17:14;;;;;;;8.43;4.45;;;;;;;22.68;28.02;101359.38;4962546;28;97342;-59
2021/01/02 10:19:44;;;;;;;8.95;4.50;;;;;;;22.68;28.22;101355.84;4959967;28;97173;-60
2021/01/02 10:22:09;;;;;;;6.25;4.40;;;;;;;22.69;28.14;101355.81;4943058;28;96807;-60
2021/01/02 10:24:35;;;;;;;7.63;4.60;;;;;;;22.70;28.08;101354.00;4933834;28;117932;-60
2021/01/02 10:27:00;;;;;;;10.02;4.25;;;;;;;22.71;27.81;101361.94;4946572;28;97289;-59
2021/01/02 10:29:26;;;;;;;7.35;4.43;;;;;;;22.71;28.15;101361.94;4962479;28;98062;-60
2021/01/02 10:31:52;;;;;;;8.38;5.03;;;;;;;22.71;27.88;101355.72;4972265;28;96864;-60
2021/01/02 10:34:17;;;;;;;6.90;4.30;;;;;;;22.71;28.15;101359.28;4933866;28;105880;-60
2021/01/02 10:36:46;;;;;;;8.30;4.63;;;;;;;22.70;28.08;101349.53;4967587;28;97562;-60
2021/01/02 10:39:11;;;;;;;8.93;4.80;;;;;;;22.71;28.04;101351.31;4951279;28;120342;-60
2021/01/02 10:41:36;;;;;;;7.20;4.50;;;;;;;22.71;28.13;101345.97;4966157;28;96963;-60
2021/01/02 10:44:02;;;;;;;8.48;4.28;;;;;;;22.71;28.16;101343.31;4966454;28;116689;-60
2021/01/02 10:46:28;;;;;;;8.75;4.43;;;;;;;22.74;27.78;101352.97;4930461;28;127547;-60
2021/01/02 10:48:53;;;;;;;7.07;4.30;;;;;;;22.74;27.99;101345.00;4922537;28;100607;-60
2021/01/02 10:51:19;;;;;;;7.13;4.70;;;;;;;22.74;28.21;101348.53;4948301;28;96768;-60
2021/01/02 10:53:44;;;;;;;9.02;4.45;;;;;;;22.75;27.82;101333.47;4965201;28;96796;-60
2021/01/02 10:56:11;;;;;;;9.00;4.63;;;;;;;22.75;28.06;101330.81;4969751;28;123166;-60
2021/01/02 10:58:36;;;;;;;7.35;4.40;;;;;;;22.75;28.01;101325.50;4952545;28;97244;-60
2021/01/02 11:01:04;;;;;;;6.25;4.03;;;;;;;22.75;27.93;101331.66;4952357;28;101297;-60
2021/01/02 11:03:30;;;;;;;8.00;4.22;;;;;;;22.75;27.79;101330.81;4967488;28;97353;-60
2021/01/02 11:05:57;;;;;;;6.40;4.57;;;;;;;22.75;28.11;101326.34;4964629;28;97438;-60
2021/01/02 11:08:22;;;;;;;7.85;4.28;;;;;;;22.75;28.13;101325.50;4932097;28;97224;-60
2021/01/02 11:10:48;;;;;;;6.38;4.25;;;;;;;22.75;27.93;101321.03;4961961;28;103755;-61
2021/01/02 11:13:13;;;;;;;7.22;4.38;;;;;;;22.75;27.90;101315.72;4967733;28;99236;-60
2021/01/02 11:15:39;;;;;;;6.50;4.15;;;;;;;22.75;27.86;101314.84;4935807;28;127009;-60
2021/01/02 11:18:05;;;;;;;7.53;4.35;;;;;;;22.76;28.12;101321.88;4957394;28;97316;-61
2021/01/02 11:20:30;;;;;;;7.25;4.28;;;;;;;22.75;27.96;101305.06;4949061;28;96683;-60
2021/01/02 11:22:56;;;;;;;6.95;4.18;;;;;;;22.75;28.07;101309.53;4968990;28;106164;-60
2021/01/02 11:25:21;;;;;;;6.97;3.92;;;;;;;22.75;28.21;101305.06;4971235;28;97507;-60
2021/01/02 11:27:47;;;;;;;10.38;4.60;;;;;;;22.76;27.87;101313.91;4955918;28;127371;-60
2021/01/02 11:30:13;;;;;;;6.82;4.60;;;;;;;22.75;27.94;101310.38;4958064;28;96908;-60
2021/01/02 11:32:38;;;;;;;6.63;4.03;;;;;;;22.75;28.08;101305.06;4971998;28;100902;-60